Terminal Aerodrome Forecast
Issued by NWS

Home | Current Version | Previous Version | Text Only | Print | Product List | Glossary On
Versions: 1 2 3 4 5 6 7 8 9 10 11 12
947
FTUS46 KOTX 221127
TAFCOE
TAF
KCOE 221127Z 2212/2312 13006KT P6SM SCT120 BKN200
     FM221900 05006KT P6SM SCT070 SCT120
     FM230600 07009KT P6SM SKC
      AMD LTD TO CLD AND VIS=

USA.gov is the U.S. government's official web portal to all federal, state and local government web resources and services.